Time;durP1;ratioP1;P1;durP2;ratioP2;P2;SDS_P1;SDS_P2;PMS_P1;PMS_P2;Temp;Humidity;BMP_temperature;BMP_pressure;BME280_temperature;BME280_humidity;BME280_pressure;Samples;Min_cycle;Max_cycle;Signal;HPM_P1;HPM_P2
2023/04/24 00:01:12;;;;;;;11.30;7.87;;;;;;;12.86;77.34;94389.94;5101034;28;20286;-80
2023/04/24 00:03:39;;;;;;;14.17;8.20;;;;;;;12.84;77.93;94380.75;5099618;28;20197;-79
2023/04/24 00:06:07;;;;;;;13.37;7.90;;;;;;;12.91;77.81;94397.81;5094547;28;20216;-79
2023/04/24 00:08:34;;;;;;;13.83;8.17;;;;;;;12.81;79.10;94384.63;5098501;28;20277;-78
2023/04/24 00:11:01;;;;;;;15.97;9.37;;;;;;;12.81;80.59;94378.63;5098474;28;20675;-79
2023/04/24 00:13:29;;;;;;;13.50;8.63;;;;;;;12.76;81.59;94384.53;5103968;28;20195;-79
2023/04/24 00:15:57;;;;;;;15.30;9.10;;;;;;;12.75;81.51;94387.41;5097546;28;20216;-79
2023/04/24 00:18:24;;;;;;;14.13;9.37;;;;;;;12.73;81.71;94379.81;5097887;28;20200;-78
2023/04/24 00:20:51;;;;;;;17.83;9.13;;;;;;;12.67;82.14;94387.81;5095172;28;20990;-79
2023/04/24 00:23:18;;;;;;;16.67;10.07;;;;;;;12.69;83.18;94376.09;5091727;28;20200;-79
2023/04/24 00:25:44;;;;;;;17.13;10.70;;;;;;;12.74;83.95;94391.81;5098411;28;20227;-79
2023/04/24 00:28:11;;;;;;;16.43;10.10;;;;;;;12.69;84.63;94385.75;5097493;28;20216;-79
2023/04/24 00:30:38;;;;;;;17.70;10.27;;;;;;;12.59;84.59;94380.34;5100698;28;20193;-81
2023/04/24 00:33:06;;;;;;;14.73;10.60;;;;;;;12.65;82.40;94376.81;5096574;28;20200;-80
2023/04/24 00:35:33;;;;;;;19.47;10.57;;;;;;;12.63;80.98;94386.69;5091742;28;20188;-79
2023/04/24 00:37:59;;;;;;;14.80;10.13;;;;;;;12.56;80.83;94380.81;5090475;28;20200;-78
2023/04/24 00:40:27;;;;;;;17.17;10.20;;;;;;;12.44;79.80;94365.25;5096242;28;20192;-78
2023/04/24 00:42:55;;;;;;;20.67;10.47;;;;;;;12.49;79.98;94381.00;5091479;28;20231;-79
2023/04/24 00:45:22;;;;;;;14.87;10.57;;;;;;;12.46;81.16;94368.44;5095909;28;20216;-79
2023/04/24 00:47:50;;;;;;;18.53;10.80;;;;;;;12.49;81.41;94373.19;5095592;28;20205;-79
2023/04/24 00:50:19;;;;;;;15.27;10.37;;;;;;;12.45;81.92;94372.06;5094211;28;20205;-78
2023/04/24 00:52:46;;;;;;;20.83;10.67;;;;;;;12.50;81.15;94380.75;5089464;28;20207;-78
2023/04/24 00:55:13;;;;;;;22.13;10.17;;;;;;;12.50;80.21;94372.94;5097313;28;20265;-79
2023/04/24 00:57:40;;;;;;;17.13;9.40;;;;;;;12.56;78.90;94373.78;5091291;28;20208;-79
2023/04/24 01:00:11;;;;;;;14.77;9.00;;;;;;;12.25;79.15;94369.91;5100084;28;20196;-78
2023/04/24 01:02:40;;;;;;;11.70;8.67;;;;;;;12.23;79.79;94377.19;5090407;28;20206;-79
2023/04/24 01:05:08;;;;;;;15.27;9.00;;;;;;;12.19;80.95;94357.03;5093449;28;20240;-79
2023/04/24 01:07:37;;;;;;;19.03;9.30;;;;;;;12.19;81.42;94364.84;5093767;28;20273;-79
2023/04/24 01:10:05;;;;;;;15.40;9.00;;;;;;;12.15;82.15;94358.53;5090226;28;20266;-79
2023/04/24 01:12:31;;;;;;;14.40;9.73;;;;;;;12.11;85.67;94347.00;5098233;28;20215;-79
2023/04/24 01:14:59;;;;;;;15.63;10.10;;;;;;;12.17;87.43;94344.25;5092525;28;20208;-79
2023/04/24 01:17:25;;;;;;;18.53;9.73;;;;;;;12.20;86.94;94335.97;5094651;28;20208;-78
2023/04/24 01:19:53;;;;;;;16.67;9.63;;;;;;;11.96;86.73;94331.88;5095476;28;20195;-78
2023/04/24 01:25:17;;;;;;;15.77;9.57;;;;;;;11.72;88.33;94340.81;5096887;28;20228;-78
2023/04/24 01:27:44;;;;;;;16.87;11.40;;;;;;;11.71;89.49;94342.66;5093928;28;20848;-79
2023/04/24 01:30:12;;;;;;;19.70;10.83;;;;;;;11.72;91.93;94333.00;5102189;28;20207;-78
2023/04/24 01:32:39;;;;;;;17.03;11.20;;;;;;;11.75;90.99;94335.13;5098011;28;20192;-78
2023/04/24 01:35:08;;;;;;;13.63;9.33;;;;;;;11.76;89.10;94339.34;5099521;28;20189;-79
2023/04/24 01:37:37;;;;;;;15.83;9.97;;;;;;;11.75;90.19;94335.13;5095743;28;20200;-78
2023/04/24 01:40:05;;;;;;;12.37;9.10;;;;;;;11.74;89.57;94339.59;5098274;28;20219;-78
2023/04/24 01:42:32;;;;;;;18.07;8.97;;;;;;;11.75;89.37;94338.53;5103239;28;20211;-78
2023/04/24 01:45:00;;;;;;;11.93;7.43;;;;;;;11.80;88.11;94335.25;5092987;28;20517;-78
2023/04/24 01:47:27;;;;;;;11.77;7.80;;;;;;;11.76;86.33;94334.13;5097431;28;20315;-78
2023/04/24 01:49:54;;;;;;;14.40;7.33;;;;;;;11.77;85.66;94331.31;5092776;28;20204;-79
2023/04/24 01:52:21;;;;;;;9.37;7.43;;;;;;;11.63;83.70;94311.72;5096833;28;20196;-79
2023/04/24 01:54:49;;;;;;;11.63;7.90;;;;;;;11.69;85.02;94333.44;5094785;28;20613;-80
2023/04/24 01:57:17;;;;;;;11.73;7.33;;;;;;;11.63;85.04;94324.75;5094303;28;20188;-78
2023/04/24 01:59:44;;;;;;;11.13;6.97;;;;;;;11.48;84.13;94332.28;5091178;28;20196;-78
2023/04/24 02:02:11;;;;;;;11.57;6.83;;;;;;;11.37;84.94;94333.09;5094339;28;20201;-78
2023/04/24 02:04:38;;;;;;;9.83;7.20;;;;;;;11.40;84.60;94327.41;5095230;28;20239;-78
2023/04/24 02:07:04;;;;;;;9.83;6.87;;;;;;;11.46;83.56;94336.16;5100203;28;20223;-78
2023/04/24 02:09:31;;;;;;;13.53;7.20;;;;;;;11.41;84.43;94329.00;5090363;28;20290;-78
2023/04/24 02:12:00;;;;;;;13.20;7.50;;;;;;;11.40;84.89;94330.81;5090668;28;20197;-79
2023/04/24 02:14:52;;;;;;;9.67;7.50;;;;;;;11.40;84.63;94327.41;5095094;28;20203;-80
2023/04/24 02:17:19;;;;;;;11.50;7.40;;;;;;;11.45;85.38;94340.56;5089931;28;20466;-80
2023/04/24 02:19:46;;;;;;;12.20;7.90;;;;;;;11.44;83.86;94336.34;5101529;28;20735;-78
2023/04/24 02:22:13;;;;;;;18.10;8.33;;;;;;;11.43;84.00;94334.75;5101234;28;20210;-78
2023/04/24 02:24:40;;;;;;;12.17;9.47;;;;;;;11.45;83.68;94334.56;5096980;28;20192;-79
2023/04/24 02:27:08;;;;;;;13.63;10.03;;;;;;;11.33;83.31;94318.97;5097495;28;20220;-79
2023/04/24 02:29:35;;;;;;;14.73;10.30;;;;;;;11.32;84.47;94323.38;5092636;28;20658;-79
2023/04/24 02:32:02;;;;;;;15.20;9.70;;;;;;;11.35;85.21;94327.31;5093545;28;20211;-79
2023/04/24 02:34:29;;;;;;;13.43;9.93;;;;;;;11.31;86.69;94319.19;5091073;28;20208;-79
2023/04/24 02:36:56;;;;;;;12.93;10.13;;;;;;;11.34;87.85;94316.13;5102028;28;20198;-78
2023/04/24 02:39:22;;;;;;;13.50;9.87;;;;;;;11.32;88.25;94297.38;5097645;28;20253;-79
2023/04/24 02:41:49;;;;;;;15.47;10.30;;;;;;;11.33;88.55;94291.16;5100937;28;20192;-78
2023/04/24 02:44:18;;;;;;;15.40;9.83;;;;;;;11.33;88.93;94298.94;5085401;28;20211;-79
2023/04/24 02:46:45;;;;;;;17.67;10.80;;;;;;;11.25;89.68;94301.91;5100132;28;20696;-79
2023/04/24 02:49:11;;;;;;;13.17;10.03;;;;;;;11.23;87.98;94301.34;5103466;28;20205;-80
2023/04/24 02:51:40;;;;;;;12.17;9.10;;;;;;;11.22;87.11;94299.00;5101915;28;20204;-80
2023/04/24 02:54:08;;;;;;;16.90;10.27;;;;;;;11.23;86.43;94301.34;5100039;28;20274;-80
2023/04/24 02:56:35;;;;;;;18.13;10.23;;;;;;;11.14;86.64;94296.75;5095467;28;20641;-80
2023/04/24 02:59:02;;;;;;;15.93;10.53;;;;;;;11.05;87.80;94300.72;5093056;28;20207;-80
2023/04/24 03:01:30;;;;;;;16.37;12.30;;;;;;;11.07;88.35;94301.28;5096812;28;20208;-79
2023/04/24 03:03:57;;;;;;;20.00;11.73;;;;;;;11.06;88.08;94300.47;5096099;28;20219;-79
2023/04/24 03:06:24;;;;;;;19.00;9.93;;;;;;;11.01;87.25;94302.97;5099646;28;20216;-80
2023/04/24 03:08:51;;;;;;;17.10;10.90;;;;;;;10.86;87.80;94291.47;5097045;28;20207;-79
2023/04/24 03:11:18;;;;;;;19.93;13.27;;;;;;;10.91;88.05;94313.16;5099371;28;20188;-79
2023/04/24 03:13:45;;;;;;;19.73;13.20;;;;;;;10.81;86.60;94305.16;5101244;28;20205;-79
2023/04/24 03:16:11;;;;;;;21.67;13.10;;;;;;;10.83;87.80;94313.50;5095192;28;20299;-79
2023/04/24 03:18:40;;;;;;;17.80;12.27;;;;;;;10.80;88.87;94312.16;5098059;28;20300;-78
2023/04/24 03:21:07;;;;;;;18.77;11.70;;;;;;;10.75;89.18;94309.47;5098761;28;20197;-78
2023/04/24 03:23:33;;;;;;;17.23;11.43;;;;;;;10.74;87.77;94312.25;5093222;28;20193;-79
2023/04/24 03:26:00;;;;;;;16.07;10.67;;;;;;;10.55;88.48;94300.41;5092308;28;20248;-80
2023/04/24 03:28:27;;;;;;;14.30;10.73;;;;;;;10.58;89.01;94310.34;5094273;28;20211;-79
2023/04/24 03:30:54;;;;;;;16.60;10.23;;;;;;;10.56;89.36;94312.41;5095398;28;20563;-79
2023/04/24 03:33:21;;;;;;;14.47;10.63;;;;;;;10.59;89.83;94311.94;5098076;28;20208;-79
2023/04/24 03:35:49;;;;;;;17.43;10.80;;;;;;;10.62;90.18;94312.28;5095177;28;20262;-79
2023/04/24 03:38:16;;;;;;;18.30;11.40;;;;;;;10.67;90.74;94309.00;5100731;28;20196;-79
2023/04/24 03:40:43;;;;;;;18.87;11.80;;;;;;;10.59;90.31;94294.53;5100414;28;20294;-80
2023/04/24 03:43:09;;;;;;;22.70;11.70;;;;;;;10.69;90.99;94307.75;5098679;28;20563;-79
2023/04/24 03:45:36;;;;;;;21.63;12.47;;;;;;;10.78;91.58;94311.59;5098391;28;20273;-78
2023/04/24 03:48:03;;;;;;;25.00;12.80;;;;;;;10.72;90.90;94303.91;5099476;28;20223;-78
2023/04/24 03:50:30;;;;;;;23.87;14.10;;;;;;;10.85;88.79;94316.66;5095859;28;20207;-78
2023/04/24 03:52:58;;;;;;;23.10;14.47;;;;;;;10.76;87.90;94307.66;5102542;28;20192;-78
2023/04/24 03:55:25;;;;;;;25.50;15.17;;;;;;;10.73;88.49;94310.72;5092075;28;20284;-78
2023/04/24 03:57:52;;;;;;;24.20;15.87;;;;;;;10.79;89.91;94312.41;5092605;28;20980;-80
2023/04/24 04:00:20;;;;;;;22.87;14.60;;;;;;;10.80;90.09;94311.34;5100663;28;20200;-80
2023/04/24 04:02:47;;;;;;;25.13;15.23;;;;;;;10.80;87.46;94309.56;5100116;28;20204;-78
2023/04/24 04:05:14;;;;;;;26.47;14.63;;;;;;;10.74;88.25;94294.88;5095797;28;20655;-80
2023/04/24 04:07:41;;;;;;;23.40;14.23;;;;;;;10.75;87.09;94303.47;5097852;28;21576;-78
2023/04/24 04:10:12;;;;;;;21.87;14.23;;;;;;;10.84;87.47;94312.50;5107918;28;20897;-79
2023/04/24 04:12:39;;;;;;;26.03;14.00;;;;;;;10.82;88.34;94301.56;5099098;28;20628;-78
2023/04/24 04:15:06;;;;;;;24.43;15.40;;;;;;;10.86;88.60;94299.25;5101101;28;20263;-79
2023/04/24 04:17:33;;;;;;;30.03;16.53;;;;;;;10.84;89.27;94286.50;5101009;28;20204;-78
2023/04/24 04:20:07;;;;;;;25.53;15.23;;;;;;;10.95;88.67;94297.91;5107641;28;20184;-78
2023/04/24 04:22:33;;;;;;;27.70;15.87;;;;;;;11.07;89.01;94309.88;5097017;28;20192;-80
2023/04/24 04:25:00;;;;;;;27.33;15.40;;;;;;;11.07;88.82;94314.28;5099112;28;20654;-78
2023/04/24 04:27:31;;;;;;;24.37;15.37;;;;;;;11.13;89.68;94321.97;5103479;28;20235;-78
2023/04/24 04:29:59;;;;;;;26.67;15.67;;;;;;;11.08;89.27;94319.22;5094003;28;20201;-81
2023/04/24 04:32:26;;;;;;;28.80;15.77;;;;;;;11.03;89.74;94321.75;5090654;28;20283;-81
2023/04/24 04:34:53;;;;;;;24.93;16.63;;;;;;;11.16;88.54;94329.31;5090472;28;20230;-81
2023/04/24 04:37:20;;;;;;;27.93;16.87;;;;;;;11.16;89.04;94339.72;5091243;28;20205;-83
2023/04/24 04:39:47;;;;;;;32.77;17.37;;;;;;;11.19;90.39;94323.66;5091441;28;20202;-83
2023/04/24 04:42:15;;;;;;;41.53;18.27;;;;;;;11.28;89.60;94335.25;5090244;28;20208;-81
2023/04/24 04:44:44;;;;;;;31.30;16.93;;;;;;;11.36;88.77;94340.13;5093454;28;20208;-81
2023/04/24 04:47:11;;;;;;;28.07;17.47;;;;;;;11.46;88.01;94339.50;5092106;28;20297;-82
2023/04/24 04:49:38;;;;;;;23.73;16.77;;;;;;;11.43;87.98;94339.97;5092917;28;20552;-81
2023/04/24 04:52:08;;;;;;;31.60;17.47;;;;;;;11.45;87.05;94348.34;5091408;28;20204;-82
2023/04/24 04:54:35;;;;;;;29.83;16.40;;;;;;;11.49;86.08;94344.25;5094283;28;20679;-82
2023/04/24 04:57:02;;;;;;;35.53;17.87;;;;;;;11.39;85.33;94350.06;5098437;28;20610;-80
2023/04/24 04:59:29;;;;;;;31.50;16.43;;;;;;;11.32;85.12;94354.59;5090657;28;20212;-80
2023/04/24 05:01:57;;;;;;;37.70;18.60;;;;;;;11.29;85.31;94356.84;5089591;28;20287;-81
2023/04/24 05:04:24;;;;;;;32.37;15.00;;;;;;;11.30;83.90;94355.84;5093406;28;20235;-81
2023/04/24 05:06:52;;;;;;;24.40;14.37;;;;;;;11.27;83.85;94351.91;5091111;28;20320;-82
2023/04/24 05:09:18;;;;;;;25.90;13.73;;;;;;;11.38;82.63;94350.28;5092777;28;20208;-81
2023/04/24 05:11:47;;;;;;;29.43;14.20;;;;;;;11.39;82.47;94351.88;5090386;28;20193;-81
2023/04/24 05:14:13;;;;;;;27.87;14.97;;;;;;;11.39;83.74;94355.28;5093160;28;20235;-80
2023/04/24 05:16:41;;;;;;;23.57;13.67;;;;;;;11.40;83.71;94341.22;5096751;28;20195;-81
2023/04/24 05:19:10;;;;;;;25.93;13.30;;;;;;;11.55;83.06;94350.34;5098090;28;20927;-81
2023/04/24 05:21:37;;;;;;;32.23;13.07;;;;;;;11.55;83.24;94353.75;5094462;28;20596;-80
2023/04/24 05:24:04;;;;;;;28.17;13.23;;;;;;;11.63;82.60;94342.19;5088979;28;20196;-79
2023/04/24 05:26:31;;;;;;;28.40;13.53;;;;;;;11.68;82.88;94342.28;5097964;28;20226;-79
2023/04/24 05:28:58;;;;;;;23.90;12.43;;;;;;;11.71;82.80;94345.25;5094130;28;20197;-79
2023/04/24 05:31:25;;;;;;;28.70;13.37;;;;;;;11.73;82.27;94343.19;5093676;28;20228;-80
2023/04/24 05:33:52;;;;;;;23.37;12.77;;;;;;;11.74;81.69;94344.00;5096136;28;20200;-81
2023/04/24 05:36:20;;;;;;;28.47;12.87;;;;;;;11.77;81.47;94354.75;5095324;28;20193;-80
2023/04/24 05:38:47;;;;;;;27.90;13.47;;;;;;;11.76;82.35;94344.53;5091594;28;20212;-80
2023/04/24 05:41:14;;;;;;;26.27;12.60;;;;;;;11.77;83.03;94343.53;5094872;28;20219;-80
2023/04/24 05:43:41;;;;;;;16.50;8.80;;;;;;;11.84;79.24;94352.78;5092498;28;20287;-82
2023/04/24 05:46:08;;;;;;;13.67;8.37;;;;;;;11.81;77.64;94355.03;5088555;28;20261;-80
2023/04/24 05:48:35;;;;;;;15.33;9.10;;;;;;;11.87;76.87;94364.53;5090822;28;20282;-79
2023/04/24 05:51:01;;;;;;;17.07;9.50;;;;;;;11.88;75.47;94345.28;5095943;28;20365;-80
2023/04/24 05:53:30;;;;;;;12.23;8.90;;;;;;;11.90;75.84;94344.03;5093957;28;20223;-78
2023/04/24 05:55:57;;;;;;;22.53;9.03;;;;;;;11.87;75.46;94335.88;5093506;28;20204;-80
2023/04/24 05:58:24;;;;;;;20.27;9.80;;;;;;;11.93;75.30;94350.59;5099728;28;20200;-81
2023/04/24 06:00:51;;;;;;;18.10;9.20;;;;;;;11.99;75.41;94352.25;5090828;28;20968;-81
2023/04/24 06:03:17;;;;;;;15.33;8.53;;;;;;;12.01;74.94;94352.00;5093373;28;20553;-81
2023/04/24 06:05:44;;;;;;;16.33;9.53;;;;;;;12.03;75.16;94353.38;5094874;28;20240;-82
2023/04/24 06:08:11;;;;;;;15.53;8.70;;;;;;;11.93;74.80;94355.78;5093295;28;20596;-79
2023/04/24 06:10:40;;;;;;;17.03;9.43;;;;;;;12.01;74.45;94345.00;5091951;28;20205;-81
2023/04/24 06:13:06;;;;;;;25.73;9.40;;;;;;;12.02;74.92;94348.38;5092830;28;20232;-79
2023/04/24 06:15:34;;;;;;;14.70;8.83;;;;;;;11.95;73.44;94340.72;5091365;28;20629;-81
2023/04/24 06:18:00;;;;;;;17.13;8.87;;;;;;;12.02;74.26;94343.97;5094081;28;20586;-81
2023/04/24 06:20:27;;;;;;;17.73;9.10;;;;;;;12.11;74.72;94353.00;5099337;28;20654;-80
2023/04/24 06:22:54;;;;;;;23.10;11.43;;;;;;;12.19;73.65;94350.00;5096665;28;20250;-80
2023/04/24 06:25:21;;;;;;;14.57;9.47;;;;;;;12.26;73.98;94348.06;5101287;28;20199;-80
2023/04/24 06:27:49;;;;;;;16.37;10.10;;;;;;;12.34;74.30;94363.28;5104488;28;20657;-80
2023/04/24 06:30:16;;;;;;;15.93;9.53;;;;;;;12.36;73.54;94358.63;5102081;28;20621;-80
2023/04/24 06:32:44;;;;;;;17.83;9.90;;;;;;;12.44;73.80;94358.22;5096209;28;20615;-81
2023/04/24 06:35:12;;;;;;;18.53;9.50;;;;;;;12.54;74.94;94357.63;5097568;28;20218;-83
2023/04/24 06:37:40;;;;;;;14.20;9.30;;;;;;;12.59;72.75;94352.47;5099263;28;20197;-81
2023/04/24 06:40:08;;;;;;;16.23;9.30;;;;;;;12.72;72.98;94359.19;5096496;28;20207;-80
2023/04/24 06:42:35;;;;;;;19.27;9.20;;;;;;;12.79;72.05;94363.22;5095719;28;20218;-84
2023/04/24 06:45:04;;;;;;;16.90;9.37;;;;;;;12.89;70.27;94359.97;5092337;28;20201;-83
2023/04/24 06:47:31;;;;;;;16.87;8.33;;;;;;;12.88;71.44;94364.38;5093048;28;20593;-84
2023/04/24 06:49:58;;;;;;;14.90;8.47;;;;;;;12.98;71.10;94363.75;5094070;28;20199;-85
2023/04/24 06:52:25;;;;;;;15.37;8.83;;;;;;;12.95;71.02;94333.72;5092710;28;20196;-85
2023/04/24 06:54:52;;;;;;;14.50;9.17;;;;;;;13.09;71.13;94360.28;5093122;28;20682;-85
2023/04/24 06:57:19;;;;;;;15.40;9.07;;;;;;;13.16;70.94;94354.91;5096537;28;20212;-84
2023/04/24 06:59:46;;;;;;;15.27;8.63;;;;;;;13.15;71.30;94343.66;5092906;28;20708;-84
2023/04/24 07:02:14;;;;;;;17.53;8.80;;;;;;;13.31;71.20;94347.25;5094453;28;20204;-79
2023/04/24 07:04:41;;;;;;;13.30;8.43;;;;;;;13.32;71.32;94335.78;5093176;28;21214;-81
2023/04/24 07:07:09;;;;;;;14.57;9.10;;;;;;;13.44;70.51;94342.47;5093829;28;20235;-81
2023/04/24 07:09:38;;;;;;;20.13;10.40;;;;;;;13.47;69.43;94339.38;5092030;28;20629;-80
2023/04/24 07:12:05;;;;;;;16.23;9.60;;;;;;;13.54;69.05;94350.41;5098128;28;20219;-79
2023/04/24 07:14:32;;;;;;;16.37;9.50;;;;;;;13.56;70.07;94347.59;5093727;28;21112;-80
2023/04/24 07:16:59;;;;;;;19.63;9.50;;;;;;;13.64;69.40;94350.56;5100107;28;20199;-80
2023/04/24 07:19:27;;;;;;;14.53;8.80;;;;;;;13.62;69.90;94339.53;5091349;28;20230;-80
2023/04/24 07:21:54;;;;;;;17.70;9.70;;;;;;;13.70;69.67;94337.53;5094712;28;20193;-80
2023/04/24 07:24:21;;;;;;;19.80;9.63;;;;;;;13.76;69.37;94334.75;5091308;28;20203;-80
2023/04/24 07:26:48;;;;;;;15.67;9.53;;;;;;;13.87;68.45;94331.22;5095977;28;20212;-80
2023/04/24 07:29:15;;;;;;;20.00;9.67;;;;;;;13.90;68.34;94335.94;5090486;28;20255;-80
2023/04/24 07:31:42;;;;;;;16.50;9.60;;;;;;;13.88;66.83;94337.22;5093817;28;20208;-79
2023/04/24 07:34:09;;;;;;;16.87;9.93;;;;;;;13.95;67.16;94327.34;5091976;28;20219;-80
2023/04/24 07:36:38;;;;;;;16.10;9.40;;;;;;;13.87;67.47;94307.69;5095456;28;21002;-81
2023/04/24 07:39:05;;;;;;;17.43;9.57;;;;;;;14.04;66.74;94321.44;5096689;28;20671;-81
2023/04/24 07:41:32;;;;;;;19.23;9.50;;;;;;;14.09;67.29;94328.53;5102844;28;20228;-82
2023/04/24 07:43:59;;;;;;;16.23;9.60;;;;;;;14.10;66.33;94317.84;5093680;28;20272;-82
2023/04/24 07:46:29;;;;;;;21.40;9.43;;;;;;;14.19;66.78;94320.81;5094091;28;20196;-82
2023/04/24 07:48:56;;;;;;;19.43;9.93;;;;;;;14.18;66.21;94309.56;5093716;28;20702;-82
2023/04/24 07:51:23;;;;;;;20.50;10.87;;;;;;;14.24;66.51;94315.59;5093909;28;20192;-82
2023/04/24 07:53:51;;;;;;;21.67;11.03;;;;;;;14.31;66.53;94299.72;5093799;28;20197;-80
2023/04/24 07:56:18;;;;;;;16.53;10.03;;;;;;;14.36;66.84;94318.09;5099176;28;20191;-80
2023/04/24 07:58:44;;;;;;;20.20;10.27;;;;;;;14.45;67.33;94314.78;5107753;28;20584;-80
2023/04/24 08:01:11;;;;;;;15.10;9.33;;;;;;;14.55;66.31;94306.19;5113307;28;20630;-81
2023/04/24 08:03:38;;;;;;;17.13;10.10;;;;;;;14.62;65.46;94306.78;5114135;28;20192;-81
2023/04/24 08:06:05;;;;;;;14.03;10.07;;;;;;;14.67;64.75;94312.06;5108227;28;20199;-81
2023/04/24 08:08:32;;;;;;;13.70;9.03;;;;;;;14.80;64.59;94310.84;5114071;28;20709;-80
2023/04/24 08:11:01;;;;;;;15.60;9.53;;;;;;;14.91;66.27;94299.38;5113913;28;20287;-80
2023/04/24 08:13:28;;;;;;;16.73;8.97;;;;;;;15.02;66.11;94304.44;5114003;28;20190;-82
2023/04/24 08:15:54;;;;;;;17.20;8.93;;;;;;;15.14;64.33;94301.63;5105557;28;20196;-81
2023/04/24 08:18:21;;;;;;;19.00;9.20;;;;;;;15.30;64.28;94298.00;5101455;28;20191;-81
2023/04/24 08:20:48;;;;;;;13.17;9.10;;;;;;;15.37;63.72;94298.56;5093305;28;20193;-81
2023/04/24 08:23:15;;;;;;;18.37;8.83;;;;;;;15.47;62.46;94297.88;5096159;28;20201;-81
2023/04/24 08:25:42;;;;;;;12.73;9.00;;;;;;;15.58;61.58;94299.47;5101125;28;20287;-82
2023/04/24 08:28:10;;;;;;;13.03;8.90;;;;;;;15.61;61.77;94289.25;5096008;28;20317;-83
2023/04/24 08:30:38;;;;;;;15.07;8.83;;;;;;;15.62;62.24;94288.22;5113323;28;20220;-81
2023/04/24 08:33:05;;;;;;;20.10;9.60;;;;;;;15.75;62.44;94292.97;5103589;28;20200;-81
2023/04/24 08:35:31;;;;;;;15.83;9.00;;;;;;;15.77;62.43;94290.88;5105798;28;20193;-81
2023/04/24 08:37:58;;;;;;;16.87;9.23;;;;;;;15.84;62.01;94273.06;5102829;28;20189;-81
2023/04/24 08:40:29;;;;;;;12.70;9.00;;;;;;;15.80;61.06;94266.78;5112272;28;20199;-81
2023/04/24 08:42:57;;;;;;;15.70;8.97;;;;;;;15.94;60.18;94279.38;5110419;28;20279;-81
2023/04/24 08:45:25;;;;;;;16.50;8.97;;;;;;;15.98;60.55;94265.50;5104405;28;20663;-81
2023/04/24 08:47:54;;;;;;;13.87;8.50;;;;;;;15.97;61.21;94261.28;5112818;28;20661;-81
2023/04/24 08:50:21;;;;;;;16.60;9.07;;;;;;;16.00;61.47;94260.78;5096037;28;20204;-81
2023/04/24 08:52:50;;;;;;;16.90;9.10;;;;;;;16.26;59.68;94264.19;5109132;28;20563;-80
2023/04/24 08:55:18;;;;;;;14.23;8.80;;;;;;;16.31;59.41;94261.56;5105463;28;20224;-80
2023/04/24 08:57:49;;;;;;;17.23;9.17;;;;;;;16.49;60.37;94255.81;5108673;28;20195;-80
2023/04/24 09:00:17;;;;;;;15.40;8.60;;;;;;;16.67;58.62;94262.38;5112866;28;20219;-80
2023/04/24 09:02:48;;;;;;;16.20;9.13;;;;;;;16.70;56.17;94261.84;5112668;28;20196;-79
2023/04/24 09:05:17;;;;;;;16.43;8.73;;;;;;;16.70;56.78;94252.13;5106754;28;20312;-80
2023/04/24 09:07:47;;;;;;;17.30;8.73;;;;;;;16.84;56.19;94247.91;5104005;28;20762;-79
2023/04/24 09:10:14;;;;;;;11.27;7.83;;;;;;;17.05;56.51;94235.50;5112816;28;20238;-79
2023/04/24 09:12:42;;;;;;;12.77;8.23;;;;;;;17.25;56.71;94240.69;5103967;28;20195;-80
2023/04/24 09:15:10;;;;;;;14.33;8.13;;;;;;;17.39;56.67;94233.00;5113124;28;20192;-80
2023/04/24 09:17:37;;;;;;;12.97;8.13;;;;;;;17.55;56.68;94230.06;5093670;28;20197;-80
2023/04/24 09:20:06;;;;;;;13.77;8.10;;;;;;;17.80;55.54;94228.34;5108712;28;20196;-80
2023/04/24 09:22:33;;;;;;;12.05;8.30;;;;;;;17.91;55.30;94228.00;5105152;28;20192;-80
2023/04/24 09:25:06;;;;;;;12.10;7.68;;;;;;;17.98;54.67;94219.78;5107417;28;20215;-80
2023/04/24 09:27:33;;;;;;;15.73;8.73;;;;;;;18.20;53.05;94228.06;5090614;28;20201;-80
2023/04/24 09:30:01;;;;;;;19.97;8.87;;;;;;;18.25;53.64;94212.22;5102833;28;20200;-80
2023/04/24 09:32:29;;;;;;;13.25;8.15;;;;;;;18.39;53.38;94215.78;5106538;28;20192;-80
2023/04/24 09:35:12;;;;;;;15.27;8.18;;;;;;;18.60;53.05;94205.88;5107432;28;20196;-80
2023/04/24 09:37:41;;;;;;;14.05;7.22;;;;;;;18.82;52.57;94218.56;5092162;28;20672;-80
2023/04/24 09:40:10;;;;;;;14.13;7.70;;;;;;;19.02;51.51;94223.59;5107365;28;20274;-80
2023/04/24 09:42:36;;;;;;;11.98;7.32;;;;;;;19.02;49.31;94232.28;5101304;28;20197;-80
2023/04/24 09:45:04;;;;;;;9.82;6.97;;;;;;;18.91;49.85;94222.16;5100738;28;20189;-79
2023/04/24 09:47:37;;;;;;;9.30;7.20;;;;;;;18.91;50.10;94220.31;5099130;28;20732;-80
2023/04/24 09:50:13;;;;;;;15.48;8.20;;;;;;;19.05;49.93;94213.28;5103063;28;20586;-80
2023/04/24 09:52:44;;;;;;;10.80;7.05;;;;;;;19.17;50.38;94194.44;5099983;28;20211;-79
2023/04/24 09:55:20;;;;;;;8.73;6.65;;;;;;;19.53;50.16;94200.09;5107365;28;20192;-80
2023/04/24 09:57:54;;;;;;;10.27;7.63;;;;;;;19.90;49.66;94194.03;5100444;28;20670;-80
2023/04/24 10:00:25;;;;;;;13.60;6.90;;;;;;;20.31;47.97;94205.56;5099878;28;20185;-80
2023/04/24 10:02:55;;;;;;;9.88;6.95;;;;;;;20.59;46.73;94206.41;5094843;28;20265;-79
2023/04/24 10:05:27;;;;;;;10.15;6.50;;;;;;;20.86;46.16;94201.94;5104049;28;20594;-81
2023/04/24 10:07:58;;;;;;;13.40;6.70;;;;;;;21.11;45.93;94194.63;5101888;28;20195;-79
2023/04/24 10:10:25;;;;;;;12.32;6.78;;;;;;;21.23;44.40;94192.28;5108790;28;20172;-79
2023/04/24 10:12:52;;;;;;;17.90;7.20;;;;;;;21.41;43.96;94194.03;5103109;28;20284;-79
2023/04/24 10:15:21;;;;;;;8.35;6.57;;;;;;;21.69;43.89;94187.59;5099990;28;20598;-79
2023/04/24 10:17:52;;;;;;;10.40;6.25;;;;;;;21.95;42.05;94158.72;5097769;28;20185;-80
2023/04/24 10:20:20;;;;;;;12.18;6.15;;;;;;;22.16;41.03;94165.13;5101653;28;20181;-79
2023/04/24 10:22:53;;;;;;;8.50;5.72;;;;;;;22.41;40.96;94158.41;5071156;28;20190;-79
2023/04/24 10:25:21;;;;;;;16.35;6.65;;;;;;;22.63;40.09;94172.38;5100462;28;20184;-79
2023/04/24 10:27:50;;;;;;;14.57;6.40;;;;;;;22.54;39.62;94150.34;5110398;28;20192;-79
2023/04/24 10:30:17;;;;;;;13.02;5.95;;;;;;;22.58;39.94;94161.91;5091156;28;20192;-79
2023/04/24 10:32:44;;;;;;;11.90;6.10;;;;;;;22.58;40.71;94161.13;5094205;28;20196;-79
2023/04/24 10:35:13;;;;;;;14.07;6.20;;;;;;;22.59;40.50;94158.19;5104082;28;20248;-79
2023/04/24 10:37:43;;;;;;;11.15;6.10;;;;;;;22.40;40.66;94162.13;5099902;28;20689;-79
2023/04/24 10:40:17;;;;;;;12.50;6.10;;;;;;;22.22;40.61;94157.81;5111943;28;20184;-79
2023/04/24 10:42:47;;;;;;;14.85;6.20;;;;;;;22.21;41.79;94151.75;5105737;28;20546;-79
2023/04/24 10:45:18;;;;;;;14.77;6.50;;;;;;;22.20;41.42;94144.88;5103135;28;20181;-79
2023/04/24 10:47:53;;;;;;;8.27;6.10;;;;;;;22.34;41.31;94139.50;5091555;28;20184;-79
2023/04/24 10:50:19;;;;;;;12.02;5.63;;;;;;;22.38;40.61;94138.59;5099971;28;20199;-79
2023/04/24 10:52:47;;;;;;;10.93;5.88;;;;;;;22.34;40.39;94142.13;5094238;28;20197;-79
2023/04/24 10:55:15;;;;;;;12.57;6.28;;;;;;;22.05;40.25;94142.59;5103227;28;20689;-79
2023/04/24 10:58:03;;;;;;;13.82;5.63;;;;;;;21.84;41.01;94152.88;5110961;28;20216;-80
2023/04/24 11:00:31;;;;;;;11.02;5.90;;;;;;;21.58;41.99;94124.63;5093533;28;20683;-81
2023/04/24 11:02:58;;;;;;;8.45;5.65;;;;;;;21.63;42.17;94132.44;5097653;28;20222;-79
2023/04/24 11:05:51;;;;;;;9.20;5.40;;;;;;;21.42;39.13;94137.41;5097776;28;20228;-79
2023/04/24 11:08:26;;;;;;;9.85;5.13;;;;;;;21.11;39.87;94139.13;5108173;28;20237;-80
2023/04/24 11:11:00;;;;;;;7.13;5.40;;;;;;;20.72;40.98;94140.38;5096183;28;20635;-79
2023/04/24 11:13:49;;;;;;;7.22;5.07;;;;;;;20.53;41.04;94150.25;5104325;28;20199;-80
2023/04/24 11:16:21;;;;;;;8.95;4.57;;;;;;;20.15;41.74;94149.56;5103376;27;20197;-79
2023/04/24 11:18:54;;;;;;;12.13;7.38;;;;;;;19.71;49.72;94186.91;5105635;28;20208;-81
2023/04/24 11:21:21;;;;;;;14.75;6.07;;;;;;;18.34;68.58;94180.84;5105601;28;20977;-80
2023/04/24 11:23:48;;;;;;;6.55;5.28;;;;;;;17.25;73.46;94192.63;5109312;28;20203;-81
2023/04/24 11:26:19;;;;;;;7.87;4.97;;;;;;;16.97;72.56;94179.06;5112095;28;20184;-80
2023/04/24 11:28:47;;;;;;;8.70;5.67;;;;;;;17.14;76.55;94173.50;5102244;28;20235;-80